| time (UTC) | temp F | wind direction | speed knots | gust knots | rain 1hr in | rain 24hr in | rain mn in | humidity % | barometer mb |
| 20260906174921 | 80 | 119 | 0.9 | 2.6 | 0.00 | 0.00 | 0.00 | 80 | 1022.9 |
| 20260906174020 | 81 | 96 | 0.9 | 1.7 | 0.00 | 0.00 | 0.00 | 78 | 1023.0 |
| 20260906173022 | 81 | 9 | 0.9 | 3.5 | 0.00 | 0.00 | 0.00 | 78 | 1022.8 |
| 20260906172022 | 81 | 108 | 0.9 | 1.7 | 0.00 | 0.00 | 0.00 | 79 | 1023.1 |
| 20260906171021 | 81 | 159 | 2.6 | 3.5 | 0.00 | 0.00 | 0.00 | 80 | 1023.2 |
| 20260906170021 | 80 | 60 | 0.9 | 2.6 | 0.00 | 0.00 | 0.00 | 81 | 1023.4 |
| 20260906165021 | 80 | 130 | 0.0 | 1.7 | 0.00 | 0.00 | 0.00 | 81 | 1023.2 |
| 20260906164022 | 79 | 144 | 0.9 | 5.2 | 0.00 | 0.00 | 0.00 | 82 | 1023.1 |
| 20260906163022 | 79 | 151 | 0.9 | 4.3 | 0.00 | 0.00 | 0.00 | 83 | 1022.9 |
| 20260906162120 | 78 | 114 | 0.9 | 1.7 | 0.00 | 0.00 | 0.00 | 83 | 1022.9 |
| 20260906161121 | 78 | 163 | 0.9 | 3.5 | 0.00 | 0.00 | 0.00 | 83 | 1022.6 |
| 20260906154122 | 78 | 139 | 0.0 | 1.7 | 0.00 | 0.00 | 0.00 | 84 | 1022.6 |
| 20260906153123 | 78 | 114 | 0.9 | 1.7 | 0.00 | 0.00 | 0.00 | 84 | 1022.6 |
| 20260906152220 | 78 | 134 | 0.9 | 1.7 | 0.00 | 0.00 | 0.00 | 85 | 1022.8 |
| 20260906151221 | 77 | 344 | 0.0 | 0.0 | 0.00 | 0.00 | 0.00 | 86 | 1022.8 |
| 20260906150222 | 77 | 15 | 0.0 | 1.7 | 0.00 | 0.00 | 0.00 | 86 | 1022.7 |
| 20260906145322 | 77 | 157 | 1.7 | 2.6 | 0.00 | 0.00 | 0.00 | 86 | 1022.9 |
| 20260906144321 | 77 | 157 | 3.5 | 6.1 | 0.00 | 0.00 | 0.00 | 88 | 1022.9 |
| 20260906143321 | 76 | 105 | 0.0 | 0.9 | 0.00 | 0.00 | 0.00 | 88 | 1023.0 |
| 20260906140422 | 75 | 242 | 0.0 | 0.9 | 0.00 | 0.00 | 0.00 | 91 | 1023.1 |
| 20260906134422 | 74 | 105 | 0.0 | 0.9 | 0.00 | 0.00 | 0.00 | 92 | 1023.2 |
| 20260906133520 | 73 | 155 | 1.7 | 4.3 | 0.00 | 0.00 | 0.00 | 93 | 1023.1 |
| 20260906132520 | 73 | 164 | 1.7 | 3.5 | 0.00 | 0.00 | 0.00 | 94 | 1023.3 |
| 20260906131521 | 72 | 157 | 0.9 | 3.5 | 0.00 | 0.00 | 0.00 | 94 | 1023.2 |
| 20260906130521 | 72 | 114 | 0.0 | 1.7 | 0.00 | 0.00 | 0.00 | 94 | 1023.1 |
| 20260906125620 | 72 | 154 | 0.9 | 3.5 | 0.00 | 0.00 | 0.00 | 95 | 1023.1 |
| 20260906124621 | 72 | 184 | 0.0 | 1.7 | 0.00 | 0.00 | 0.00 | 95 | 1023.0 |
| 20260906124521 | 72 | 130 | 0.0 | 1.7 | 0.00 | 0.00 | 0.00 | 94 | 1023.0 |
| 20260906123520 | 72 | 167 | 0.0 | 2.6 | 0.00 | 0.00 | 0.00 | 95 | 1023.0 |
| 20260906122619 | 72 | 135 | 0.0 | 0.0 | 0.00 | 0.00 | 0.00 | 95 | 1022.8 |
| 20260906121620 | 72 | 107 | 0.0 | 1.7 | 0.00 | 0.00 | 0.00 | 95 | 1022.6 |
| 20260906120719 | 72 | 162 | 1.7 | 4.3 | 0.00 | 0.00 | 0.00 | 95 | 1022.5 |
| 20260906115721 | 72 | 141 | 0.0 | 0.9 | 0.00 | 0.00 | 0.00 | 95 | 1022.4 |
| 20260906114820 | 72 | 144 | 0.0 | 0.9 | 0.00 | 0.00 | 0.00 | 95 | 1022.2 |
| 20260906112821 | 72 | 116 | 0.0 | 0.0 | 0.00 | 0.00 | 0.00 | 95 | 1022.0 |
| 20260906111921 | 72 | 157 | 0.0 | 0.0 | 0.00 | 0.00 | 0.00 | 94 | 1022.0 |
| 20260906110921 | 72 | 125 | 0.0 | 1.7 | 0.00 | 0.00 | 0.00 | 95 | 1022.1 |
| 20260906105920 | 72 | 92 | 0.0 | 0.9 | 0.00 | 0.00 | 0.00 | 95 | 1022.1 |
| 20260906104921 | 72 | 159 | 0.0 | 0.9 | 0.00 | 0.00 | 0.00 | 95 | 1022.1 |
| 20260906104019 | 72 | 180 | 0.0 | 0.0 | 0.00 | 0.00 | 0.00 | 95 | 1022.4 |
| 20260906103021 | 72 | 30 | 0.0 | 0.9 | 0.00 | 0.00 | 0.00 | 96 | 1022.4 |
| 20260906102022 | 71 | 112 | 0.0 | 0.0 | 0.00 | 0.00 | 0.00 | 96 | 1022.5 |
| 20260906101020 | 71 | 66 | 0.0 | 0.9 | 0.00 | 0.00 | 0.00 | 95 | 1022.5 |
| 20260906100020 | 71 | 127 | 0.0 | 1.7 | 0.00 | 0.00 | 0.00 | 96 | 1022.4 |
| 20260906095119 | 71 | 148 | 0.0 | 2.6 | 0.00 | 0.00 | 0.00 | 96 | 1022.3 |
| 20260906094120 | 71 | 157 | 0.0 | 0.0 | 0.00 | 0.00 | 0.00 | 95 | 1022.1 |
| 20260906093120 | 71 | 129 | 0.9 | 1.7 | 0.00 | 0.00 | 0.00 | 95 | 1022.1 |
| 20260906092121 | 72 | 97 | 0.0 | 0.9 | 0.00 | 0.00 | 0.00 | 95 | 1021.9 |
| 20260906090121 | 72 | 115 | 0.0 | 0.9 | 0.00 | 0.00 | 0.00 | 94 | 1021.7 |
| 20260906085220 | 72 | 112 | 0.0 | 0.9 | 0.00 | 0.00 | 0.00 | 95 | 1021.9 |
| 20260906083220 | 72 | 112 | 0.0 | 0.0 | 0.00 | 0.00 | 0.00 | 95 | 1021.8 |
| 20260906082320 | 72 | 155 | 0.0 | 0.9 | 0.00 | 0.00 | 0.00 | 94 | 1021.7 |
| 20260906081322 | 72 | 125 | 0.9 | 1.7 | 0.00 | 0.00 | 0.00 | 94 | 1021.8 |
| 20260906080421 | 72 | 40 | 0.0 | 0.9 | 0.00 | 0.00 | 0.00 | 95 | 1021.8 |
| 20260906075421 | 72 | 165 | 0.0 | 0.0 | 0.00 | 0.00 | 0.00 | 94 | 1021.7 |
| 20260906074419 | 72 | 90 | 0.0 | 0.0 | 0.00 | 0.00 | 0.00 | 95 | 1021.5 |
| 20260906073420 | 72 | 49 | 0.0 | 0.0 | 0.00 | 0.00 | 0.00 | 95 | 1021.6 |
| 20260906072519 | 73 | 180 | 0.0 | 0.0 | 0.00 | 0.00 | 0.00 | 94 | 1021.7 |
| 20260906071521 | 73 | 77 | 0.0 | 1.7 | 0.00 | 0.00 | 0.00 | 95 | 1021.8 |
| 20260906070520 | 73 | 112 | 0.0 | 1.7 | 0.00 | 0.00 | 0.00 | 95 | 1021.7 |
| 20260906065521 | 73 | 113 | 0.9 | 1.7 | 0.00 | 0.00 | 0.00 | 95 | 1021.7 |
| 20260906064620 | 73 | 117 | 0.0 | 0.0 | 0.00 | 0.00 | 0.00 | 95 | 1021.8 |
| 20260906063621 | 73 | 122 | 0.9 | 2.6 | 0.00 | 0.00 | 0.00 | 94 | 1021.9 |
| 20260906062619 | 73 | 135 | 0.0 | 1.7 | 0.00 | 0.00 | 0.00 | 94 | 1021.9 |
| 20260906061621 | 73 | 54 | 0.0 | 0.0 | 0.00 | 0.00 | 0.00 | 95 | 1021.9 |
| 20260906060720 | 73 | 150 | 0.0 | 1.7 | 0.00 | 0.00 | 0.00 | 95 | 1021.8 |
| 20260906055721 | 74 | 131 | 0.0 | 0.0 | 0.00 | 0.00 | 0.00 | 95 | 1021.8 |
| 20260906054720 | 74 | 117 | 0.0 | 1.7 | 0.00 | 0.00 | 0.00 | 95 | 1021.7 |
| 20260906053720 | 74 | 360 | 0.0 | 0.0 | 0.00 | 0.00 | 0.00 | 94 | 1021.7 |
| 20260906052721 | 74 | 112 | 0.0 | 0.0 | 0.00 | 0.00 | 0.00 | 95 | 1021.9 |
| 20260906050819 | 74 | 77 | 0.0 | 1.7 | 0.00 | 0.00 | 0.00 | 94 | 1021.6 |
| 20260906045827 | 74 | 37 | 0.0 | 0.9 | 0.00 | 0.00 | 0.00 | 94 | 1021.7 |
| 20260906045726 | 74 | 51 | 0.0 | 0.9 | 0.00 | 0.00 | 0.00 | 94 | 1021.6 |
| 20260906044726 | 75 | 67 | 0.0 | 0.0 | 0.00 | 0.00 | 0.00 | 93 | 1021.7 |
| 20260906043725 | 75 | 22 | 0.0 | 0.0 | 0.00 | 0.00 | 0.00 | 93 | 1021.7 |
| 20260906041729 | 75 | 112 | 0.0 | 0.0 | 0.00 | 0.00 | 0.00 | 93 | 1021.7 |
| 20260906035727 | 76 | 75 | 0.0 | 0.0 | 0.00 | 0.00 | 0.00 | 91 | 1021.6 |
| 20260906033726 | 76 | 360 | 0.0 | 0.0 | 0.00 | 0.00 | 0.00 | 91 | 1021.7 |
| 20260906032726 | 77 | 109 | 0.0 | 0.9 | 0.00 | 0.00 | 0.00 | 90 | 1021.6 |
| 20260906031825 | 77 | 67 | 0.0 | 0.0 | 0.00 | 0.00 | 0.00 | 90 | 1021.7 |
| 20260906030824 | 77 | 67 | 0.0 | 0.9 | 0.00 | 0.00 | 0.00 | 90 | 1021.5 |
| 20260906024925 | 78 | 67 | 0.0 | 0.9 | 0.00 | 0.00 | 0.00 | 90 | 1021.1 |
| 20260906023928 | 78 | 67 | 0.0 | 0.9 | 0.00 | 0.00 | 0.00 | 89 | 1021.1 |
| 20260906022926 | 78 | 50 | 0.0 | 0.9 | 0.00 | 0.00 | 0.00 | 89 | 1021.0 |
| 20260906021926 | 79 | 67 | 0.0 | 0.9 | 0.00 | 0.00 | 0.00 | 87 | 1020.8 |
| 20260906020028 | 79 | 65 | 0.0 | 0.0 | 0.00 | 0.00 | 0.00 | 87 | 1020.6 |
| 20260906015028 | 79 | 67 | 0.0 | 0.0 | 0.00 | 0.00 | 0.00 | 85 | 1020.5 |
| 20260906013225 | 80 | 67 | 0.0 | 0.0 | 0.00 | 0.00 | 0.00 | 85 | 1020.1 |
| 20260906012324 | 80 | 67 | 0.0 | 0.9 | 0.00 | 0.00 | 0.00 | 83 | 1020.0 |
| 20260906011326 | 80 | 67 | 0.0 | 0.0 | 0.00 | 0.00 | 0.00 | 84 | 1020.0 |
| 20260906010325 | 81 | 67 | 0.0 | 0.0 | 0.00 | 0.00 | 0.00 | 82 | 1019.9 |
| 20260906004325 | 82 | 67 | 0.0 | 0.9 | 0.00 | 0.00 | 0.00 | 81 | 1019.9 |
| 20260906002327 | 83 | 118 | 0.0 | 0.9 | 0.00 | 0.00 | 0.00 | 80 | 1019.9 |
| 20260906001425 | 83 | 67 | 0.0 | 0.9 | 0.00 | 0.00 | 0.00 | 79 | 1019.7 |
| 20260905235428 | 84 | 63 | 0.9 | 3.5 | 0.00 | 0.00 | 0.00 | 78 | 1019.9 |
| 20260905234526 | 84 | 112 | 0.0 | 0.9 | 0.00 | 0.00 | 0.00 | 77 | 1019.9 |
| 20260905231527 | 86 | 26 | 0.9 | 2.6 | 0.00 | 0.00 | 0.00 | 75 | 1019.8 |
| 20260905225526 | 86 | 92 | 0.9 | 1.7 | 0.00 | 0.00 | 0.00 | 75 | 1019.7 |
| 20260905224525 | 86 | 290 | 0.0 | 0.0 | 0.00 | 0.00 | 0.00 | 75 | 1019.6 |
| 20260905223526 | 86 | 129 | 0.0 | 3.5 | 0.00 | 0.00 | 0.00 | 74 | 1019.5 |
| 20260905222525 | 86 | 122 | 0.0 | 1.7 | 0.00 | 0.00 | 0.00 | 72 | 1019.2 |
| 20260905221527 | 87 | 44 | 0.0 | 1.7 | 0.00 | 0.00 | 0.00 | 72 | 1019.3 |
| 20260905220526 | 87 | 74 | 0.9 | 2.6 | 0.00 | 0.00 | 0.00 | 72 | 1019.5 |
| 20260905215525 | 86 | 124 | 0.0 | 1.7 | 0.00 | 0.00 | 0.00 | 71 | 1019.5 |
| 20260905214528 | 87 | 118 | 0.9 | 2.6 | 0.00 | 0.00 | 0.00 | 70 | 1019.6 |
| 20260905213527 | 87 | 103 | 0.0 | 0.9 | 0.00 | 0.00 | 0.00 | 69 | 1019.6 |
| 20260905213429 | 87 | 122 | 0.0 | 0.9 | 0.00 | 0.00 | 0.00 | 70 | 1019.6 |
| 20260905212526 | 87 | 67 | 0.0 | 0.0 | 0.00 | 0.00 | 0.00 | 68 | 1019.4 |
| 20260905211526 | 86 | 15 | 0.0 | 0.9 | 0.00 | 0.00 | 0.00 | 67 | 1019.2 |
| 20260905205526 | 86 | 47 | 0.9 | 5.2 | 0.00 | 0.00 | 0.00 | 67 | 1019.5 |
| 20260905204528 | 86 | 79 | 0.0 | 0.9 | 0.00 | 0.00 | 0.00 | 66 | 1020.0 |
| 20260905203525 | 86 | 88 | 0.0 | 0.9 | 0.00 | 0.00 | 0.00 | 66 | 1020.1 |
| 20260905195625 | 85 | 112 | 0.0 | 1.7 | 0.00 | 0.00 | 0.00 | 67 | 1020.3 |
| 20260905193628 | 85 | 58 | 0.0 | 0.9 | 0.00 | 0.00 | 0.00 | 68 | 1020.5 |
| 20260905192725 | 84 | 90 | 0.0 | 0.0 | 0.00 | 0.00 | 0.00 | 68 | 1020.4 |
| 20260905191825 | 84 | 120 | 0.0 | 1.7 | 0.00 | 0.00 | 0.00 | 67 | 1020.3 |
| 20260905190826 | 83 | 120 | 0.0 | 0.9 | 0.00 | 0.00 | 0.00 | 68 | 1020.2 |
| 20260905184926 | 82 | 43 | 0.0 | 1.7 | 0.00 | 0.00 | 0.00 | 70 | 1020.3 |
| 20260905184024 | 81 | 121 | 0.0 | 1.7 | 0.00 | 0.00 | 0.00 | 70 | 1020.5 |
| 20260905183024 | 81 | 134 | 0.0 | 0.9 | 0.00 | 0.00 | 0.00 | 72 | 1020.5 |
| 20260905182024 | 80 | 6 | 0.0 | 0.0 | 0.00 | 0.00 | 0.00 | 74 | 1020.7 |
| 20260905180024 | 79 | 67 | 0.0 | 0.9 | 0.00 | 0.00 | 0.00 | 73 | 1021.1 |
| 20260905175924 | 79 | 67 | 0.0 | 0.9 | 0.00 | 0.00 | 0.00 | 74 | 1021.1 |